Sand Spring Valley, Nevada Weather observations

Data are for 10 minute period ending at time listed.
 Day   Time   Solar   Ave.   Ave.  Ave.  Vector  Max.   Baro.   Total    
  of    of     Rad.   Air    Rel.  Wind   Wind   Wind  Press.  Precip.   
Year   Day            Temp.  Hum.  Speed  Dir.   Gust                    
2017   (PST)  Kw/m2    F      %     mph   deg.    mph    mb.     in.     
-------------------------------------------------------------------------
  15   19:00   0.00   28.1    76    5.0   196     5.8   853.0    0.00 
  15   19:10   0.00   27.3    78    5.5   210     7.2   853.1    0.00 
  15   19:20   0.00   26.9    80    6.0   221     6.9   853.1    0.00 
  15   19:30   0.00   28.2    78    5.4   231     6.5   853.2    0.00 
  15   19:40   0.00   28.0    78    5.6   224     6.9   853.1    0.00 
  15   19:50   0.00   28.4    77    5.4   207     6.8   853.2    0.00 
  15   20:00   0.00   27.7    77    5.4   199     6.6   853.2    0.00 
  15   20:10   0.00   26.9    79    4.5   209     5.0   853.2    0.00 
  15   20:20   0.00   26.2    80    5.4   207     6.4   853.3    0.00 
  15   20:30   0.00   26.9    81    5.6   211     6.8   853.3    0.00 
  15   20:40   0.00   27.2    80    3.3   199     5.3   853.5    0.00 
  15   20:50   0.00   26.2    80    4.7   204     6.4   853.6    0.00 
  15   21:00   0.00   25.7    83    5.2   229     6.1   853.6    0.00 
  15   21:10   0.00   26.0    82    4.2   247     5.4   853.7    0.00 
  15   21:20   0.00   27.4    82    4.6   267     5.9   853.9    0.00 
  15   21:30   0.00   28.6    79    5.3   227     7.0   853.9    0.00 
  15   21:40   0.00   29.2    77    5.8   241     8.5   853.9    0.00 
  15   21:50   0.00   30.5    75    5.9   286     8.5   853.9    0.00 
  15   22:00   0.00   30.1    75    4.3   295     6.7   854.1    0.00 
  15   22:10   0.00   29.2    77    1.4   301     3.3   854.2    0.00 
  15   22:20   0.00   29.2    77    2.0   177     3.6   854.2    0.00 
  15   22:30   0.00   30.2    74    0.1   240     2.4   854.2    0.00 
  15   22:40   0.00   29.7    74    0.4   253     1.5   854.4    0.00 
  15   22:50   0.00   29.0    75    1.1   252     2.1   854.4    0.00 
  15   23:00   0.00   28.2    76    0.8   225     2.4   854.5    0.00 
  15   23:10   0.00   27.1    75    3.2   202     4.7   854.5    0.00 
  15   23:20   0.00   26.0    79    4.7   212     6.1   854.5    0.00 
  15   23:30   0.00   25.1    79    4.9   229     6.0   854.5    0.00 
  15   23:40   0.00   26.7    78    7.2   269    10.9   854.5    0.00 
  15   23:50   0.00   28.0    75    8.2   273    13.1   854.5    0.00 
  16    0:00   0.00   27.9    74    8.5   271    12.3   854.5    0.00 
  16    0:10   0.00   28.5    72   10.1   277    13.7   854.5    0.00 
  16    0:20   0.00   27.5    73    5.7   284     8.8   854.5    0.00 
  16    0:30   0.00   26.8    74    6.3   297     9.5   854.5    0.00 
  16    0:40   0.00   26.4    74    7.4   306    10.6   854.6    0.00 
  16    0:50   0.00   26.7    72    9.0   300    12.1   854.6    0.00 
  16    1:00   0.00   27.0    70    8.7   303    12.7   854.6    0.00 
  16    1:10   0.00   26.1    71    6.4   310    10.0   854.7    0.00 
  16    1:20   0.00   24.7    73    5.1   307     7.3   854.7    0.00 
  16    1:30   0.00   24.8    73    5.5   298     7.8   854.7    0.00 
  16    1:40   0.00   24.6    73    5.7   287     7.2   854.8    0.00 
  16    1:50   0.00   24.3    74    6.1   282     7.6   854.9    0.00 
  16    2:00   0.00   23.7    75    5.5   288     6.5   854.9    0.00 
  16    2:10   0.00   24.0    74    6.4   293     9.6   854.9    0.00 
  16    2:20   0.00   23.7    74    5.3   302     7.2   854.9    0.00 
  16    2:30   0.00   22.0    76    4.6   302     5.3   855.0    0.00 
  16    2:40   0.00   20.8    79    4.1   293     4.7   855.0    0.00 
  16    2:50   0.00   20.7    80    1.3   104     3.6   855.0    0.00 
  16    3:00   0.00   22.9    76    0.2   316     2.0   855.0    0.00 
  16    3:10   0.00   22.9    74    0.2   318     0.9   854.9    0.00 
  16    3:20   0.00   20.6    75    3.6   217     7.2   854.9    0.00 
  16    3:30   0.00   20.8    76    4.2   281     5.2   854.8    0.00 
  16    3:40   0.00   18.7    78    1.9   271     5.0   854.9    0.00 
  16    3:50   0.00   20.3    79    5.8   268     6.6   854.9    0.00 
  16    4:00   0.00   21.1    76    5.5   262     6.9   854.8    0.00 
  16    4:10   0.00   21.2    76    6.6   263     8.3   854.9    0.00 
  16    4:20   0.00   21.8    74    6.0   270     7.9   855.0    0.00 
  16    4:30   0.00   22.2    73    6.1   285     8.4   855.0    0.00 
  16    4:40   0.00   21.4    73    3.7   309     6.0   855.1    0.00 
  16    4:50   0.00   21.3    73    4.3   282     6.3   855.3    0.00 
  16    5:00   0.00   21.1    73    1.9   300     3.5   855.3    0.00 
  16    5:10   0.00   20.2    74    2.9   278     4.2   855.4    0.00 
  16    5:20   0.00   18.9    77    4.2   270     5.8   855.5    0.00 
  16    5:30   0.00   19.2    77    3.9   256     4.7   855.6    0.00 
  16    5:40   0.00   18.2    78    3.1   258     4.2   855.7    0.00 
  16    5:50   0.00   18.1    77    2.6   249     4.2   855.8    0.00 
  16    6:00   0.00   17.0    78    2.9   259     4.8   855.9    0.00 
  16    6:10   0.00   16.7    82    0.4   312     1.6   856.1    0.00 
  16    6:20   0.00   17.0    81    0.3   109     2.6   856.1    0.00 
  16    6:30   0.00   17.1    81    1.1   215     4.1   856.2    0.00 
  16    6:40   0.00   18.2    81    5.2   281     6.4   856.2    0.00 
  16    6:50   0.00   18.8    80    5.8   284     7.6   856.3    0.00 
  16    7:00   0.00   19.3    80    7.8   284    10.9   856.3    0.00 
  16    7:10   0.00   19.4    79    7.1   285     9.6   856.4    0.00 
  16    7:20   0.00   18.8    80    4.6   294     7.7   856.5    0.00 
  16    7:30   0.00   18.8    80    2.8    84     5.7   856.8    0.00 
  16    7:40   0.00   20.1    78    2.8   131     4.6   856.9    0.00 
  16    7:50   0.00   21.9    75    4.4   168     6.8   857.0    0.00 
  16    8:00   0.00   23.1    72    3.7   165     5.6   857.2    0.00 
  16    8:10   0.00   24.7    69    3.1   196     4.7   857.3    0.00 
  16    8:20   0.00   24.8    68    3.7   211     5.2   857.3    0.00 
  16    8:30   0.00   24.7    69    3.0   231     3.9   857.4    0.00 
  16    8:40   0.00   26.2    64    2.5   197     3.7   857.4    0.00 
  16    8:50   0.00   27.6    60    2.3   150     4.0   857.5    0.00 
  16    9:00   0.00   28.0    59    2.2   140     3.6   857.6    0.00 
  16    9:10   0.00   28.8    59    2.0   167     3.8   857.7    0.00 
  16    9:20   0.00   30.0    54    1.2   210     3.4   857.7    0.00 
  16    9:30   0.00   29.5    54    1.0   312     3.1   857.8    0.00 
  16    9:40   0.00   29.0    55    0.8   330     2.9   857.9    0.00 
  16    9:50   0.00   29.5    54    1.6   355     4.8   858.0    0.00 
  16   10:00   0.00   28.9    55    2.5    18     5.0   858.0    0.00 
  16   10:10   0.00   29.6    54    1.7    15     4.4   858.0    0.00 
  16   10:20   0.00   29.5    54    2.6   296     5.2   858.1    0.00 
  16   10:30   0.00   29.6    55    2.4   306     5.4   858.0    0.00 
  16   10:40   0.00   30.8    53    1.3   254     5.0   857.9    0.00 
  16   10:50   0.00   32.7    49    1.9   136     4.6   857.7    0.00 
  16   11:00   0.00   30.8    52    1.8    30     3.4   857.5    0.00 
  16   11:10   0.00   33.5    48    1.4   172     4.2   857.4    0.00 
  16   11:20   0.00   32.2    48    1.3   348     3.8   857.2    0.00 
  16   11:30   0.00   32.3    48    1.6   290     3.7   857.0    0.00 
  16   11:40   0.00   32.3    48    1.9   308     4.5   856.9    0.00 
  16   11:50   0.00   34.0    45    0.8    55     2.6   856.7    0.00 
  16   12:00   0.00   34.1    46    1.5    80     5.0   856.4    0.00 
  16   12:10   0.00   35.0    45    2.5   147     5.1   856.2    0.00 
  16   12:20   0.00   35.0    44    2.1   159     6.1   856.0    0.00 
  16   12:30   0.00   35.8    43    1.0   194     3.1   855.8    0.00 
  16   12:40   0.00   37.1    40    1.2   228     3.7   855.7    0.00 
  16   12:50   0.00   38.0    37    1.5   225     5.2   855.5    0.00 
  16   13:00   0.00   37.2    39    1.5   267     4.0   855.4    0.00 
  16   13:10   0.00   38.0    39    1.4   331     4.7   855.2    0.00 
  16   13:20   0.00   37.8    39    1.9    51     7.2   854.9    0.00 
  16   13:30   0.00   37.8    40    2.8    45     7.9   854.8    0.00 
  16   13:40   0.00   38.4    39    1.6    23     5.6   854.8    0.00 
  16   13:50   0.00   38.5    39    1.9   306     5.8   854.7    0.00 
  16   14:00   0.00   38.8    38    1.9   331     4.4   854.7    0.00 
  16   14:10   0.00   39.1    37    1.2    51     3.4   854.6    0.00 
  16   14:20   0.00   38.8    38    2.2    38     6.3   854.5    0.00 
  16   14:30   0.00   39.5    37    2.9   322     4.6   854.5    0.00 
  16   14:40   0.00   39.5    36    3.1   300     6.6   854.5    0.00 
  16   14:50   0.00   39.8    35    3.0   314     6.5   854.5    0.00 
  16   15:00   0.00   40.4    35    2.0   271     4.7   854.6    0.00 
  16   15:10   0.00   40.7    34    2.8   312     6.3   854.6    0.00 
  16   15:20   0.00   40.3    34    2.5   324     4.5   854.7    0.00 
  16   15:30   0.00   41.3    34    0.6   334     3.3   854.8    0.00 
  16   15:40   0.00   40.9    33    1.3   328     3.1   854.8    0.00 
  16   15:50   0.00   41.0    33    1.9   310     3.6   854.9    0.00 
  16   16:00   0.00   40.5    35    2.5   311     3.5   855.0    0.00 
  16   16:10   0.00   40.7    35    1.1   319     2.4   855.1    0.00 
  16   16:20   0.00   39.7    34    4.8   326    12.2   855.2    0.00 
  16   16:30   0.00   36.6    38    9.0   311    11.8   855.2    0.00 
  16   16:40   0.00   35.3    40    7.9   310    10.6   855.3    0.00 
  16   16:50   0.00   33.9    43    6.6   299     9.8   855.3    0.00 
  16   17:00   0.00   32.2    47    6.6   289     9.2   855.3    0.00 
  16   17:10   0.00   31.6    48    7.1   289     9.4   855.5    0.00 
  16   17:20   0.00   30.6    50    6.9   286     9.0   855.5    0.00 
  16   17:30   0.00   30.5    51    7.6   288     9.3   855.5    0.00 
  16   17:40   0.00   30.5    51    7.5   300     9.9   855.6    0.00 
  16   17:50   0.00   30.6    51    8.5   302    12.0   855.6    0.00 
  16   18:00   0.00   30.3    52    8.0   301    10.8   855.7    0.00 
  16   18:10   0.00   29.6    54    6.8   292     8.5   855.7    0.00 
  16   18:20   0.00   29.2    55    6.5   292     8.3   855.7    0.00 
  16   18:30   0.00   28.8    57    4.7    12     7.9   855.8    0.00 
  16   18:40   0.00   30.1    52    3.0    19     7.2   855.9    0.00 
  16   18:50   0.00   30.3    51    1.8    84     6.1   855.9    0.00 

Return to Sand Spring Valley graphs page.


Western Regional Climate Center,wrcc@dri.edu